Aviation Digital Data Service (ADDS)

Output produced by TAFs form (1928 UTC 25 May 2015)
found at http://aviationweather.gov/adds/tafs/
 
KGJT 251742Z 2518/2618 00000KT P6SM VCTS FEW023 SCT070CB OVC090 
     TEMPO 2521/2601 VRB10G20KT -TSRA BKN050CB 
     FM260300 10008KT P6SM SCT100 OVC150 
     FM261000 10008KT P6SM FEW050 OVC100 
     FM261500 14006KT P6SM FEW030 SCT080 BKN140